Time;durP1;ratioP1;P1;durP2;ratioP2;P2;SDS_P1;SDS_P2;PMS_P1;PMS_P2;Temp;Humidity;BMP_temperature;BMP_pressure;BME280_temperature;BME280_humidity;BME280_pressure;Samples;Min_cycle;Max_cycle;Signal;HPM_P1;HPM_P2
2023/03/16 00:00:51;;;;;;;5.38;1.70;;;7.40;99.90;;;;;;5007546;28;20393;-61
2023/03/16 00:03:18;;;;;;;11.13;1.92;;;7.40;99.90;;;;;;5015951;28;20050;-58
2023/03/16 00:05:49;;;;;;;6.85;1.58;;;7.40;99.90;;;;;;5012225;28;20563;-61
2023/03/16 00:08:16;;;;;;;9.60;1.85;;;7.40;99.90;;;;;;5018970;28;20046;-61
2023/03/16 00:10:46;;;;;;;13.30;2.13;;;7.50;99.90;;;;;;5011480;28;20058;-59
2023/03/16 00:13:16;;;;;;;11.80;2.42;;;7.40;99.90;;;;;;4996050;28;20050;-57
2023/03/16 00:15:54;;;;;;;4.28;1.83;;;7.40;99.90;;;;;;5010118;28;20046;-58
2023/03/16 00:18:25;;;;;;;5.18;1.92;;;7.40;99.90;;;;;;5015149;28;20045;-60
2023/03/16 00:20:57;;;;;;;10.15;4.28;;;7.40;99.90;;;;;;5022067;28;20054;-59
2023/03/16 00:23:27;;;;;;;13.13;2.17;;;7.40;99.90;;;;;;5019389;28;20076;-59
2023/03/16 00:25:58;;;;;;;7.28;2.00;;;7.40;99.90;;;;;;4993461;28;20050;-58
2023/03/16 00:28:26;;;;;;;6.35;1.80;;;7.50;99.90;;;;;;4986381;28;20095;-59
2023/03/16 00:30:57;;;;;;;8.07;2.88;;;7.50;99.90;;;;;;5010778;28;20072;-58
2023/03/16 00:33:25;;;;;;;5.07;1.90;;;7.50;99.90;;;;;;5019590;28;20111;-58
2023/03/16 00:36:00;;;;;;;3.47;1.70;;;7.50;99.90;;;;;;5009042;28;20138;-59
2023/03/16 00:38:33;;;;;;;3.50;1.63;;;7.50;99.90;;;;;;5018739;28;20108;-57
2023/03/16 00:41:04;;;;;;;5.82;1.77;;;7.50;99.90;;;;;;5025956;28;20088;-58
2023/03/16 00:43:39;;;;;;;11.85;2.10;;;7.60;99.90;;;;;;5014878;28;20077;-59
2023/03/16 00:46:07;;;;;;;3.05;1.80;;;7.60;99.90;;;;;;5025192;28;20049;-58
2023/03/16 00:48:34;;;;;;;5.15;1.80;;;7.70;99.90;;;;;;5015995;28;20494;-59
2023/03/16 00:51:03;;;;;;;7.00;2.05;;;7.70;99.90;;;;;;5024643;28;20047;-58
2023/03/16 00:53:30;;;;;;;3.17;1.73;;;7.70;99.90;;;;;;5021241;28;20076;-59
2023/03/16 00:55:57;;;;;;;8.55;2.35;;;7.80;99.90;;;;;;4994740;28;20113;-60
2023/03/16 00:58:23;;;;;;;4.60;2.05;;;7.80;99.90;;;;;;5014373;28;20046;-58
2023/03/16 01:00:53;;;;;;;5.88;2.50;;;7.80;99.90;;;;;;5013832;28;20056;-60
2023/03/16 01:03:20;;;;;;;7.20;1.98;;;7.80;99.90;;;;;;4995718;28;20136;-60
2023/03/16 01:05:46;;;;;;;6.25;3.85;;;7.80;99.90;;;;;;5016535;28;20042;-59
2023/03/16 01:08:13;;;;;;;6.47;2.30;;;7.80;99.90;;;;;;5013077;28;20049;-55
2023/03/16 01:10:40;;;;;;;8.55;1.77;;;7.80;99.90;;;;;;5022200;28;20129;-59
2023/03/16 01:13:07;;;;;;;3.50;1.42;;;7.80;99.90;;;;;;5014141;28;20051;-59
2023/03/16 01:15:33;;;;;;;4.35;2.15;;;7.80;99.90;;;;;;5021639;28;20045;-57
2023/03/16 01:18:00;;;;;;;4.00;1.50;;;7.80;99.90;;;;;;5013349;28;20506;-57
2023/03/16 01:20:27;;;;;;;5.82;1.67;;;7.90;99.90;;;;;;5023109;28;20046;-56
2023/03/16 01:22:54;;;;;;;4.13;1.83;;;7.90;99.90;;;;;;5014596;28;20128;-59
2023/03/16 01:25:23;;;;;;;5.40;2.22;;;7.90;99.90;;;;;;5017990;28;20049;-58
2023/03/16 01:27:49;;;;;;;6.13;2.17;;;7.90;99.90;;;;;;5026471;28;20042;-58
2023/03/16 01:30:16;;;;;;;7.75;1.63;;;7.90;99.90;;;;;;5016316;28;20137;-58
2023/03/16 01:32:43;;;;;;;5.63;1.50;;;7.90;99.90;;;;;;5027533;28;20140;-57
2023/03/16 01:35:10;;;;;;;4.90;2.40;;;7.90;99.90;;;;;;5017262;28;20056;-58
2023/03/16 01:37:37;;;;;;;5.65;2.00;;;7.90;99.90;;;;;;5026230;28;20068;-58
2023/03/16 01:40:05;;;;;;;11.02;1.90;;;7.90;99.90;;;;;;5019049;28;20052;-59
2023/03/16 01:42:40;;;;;;;3.17;1.55;;;7.90;99.90;;;;;;5014144;28;20085;-59
2023/03/16 01:45:45;;;;;;;12.35;3.95;;;8.00;99.90;;;;;;5019187;28;20060;-56
2023/03/16 01:48:11;;;;;;;6.88;2.20;;;7.90;99.90;;;;;;5011784;28;20046;-58
2023/03/16 01:50:38;;;;;;;5.30;2.00;;;7.90;99.90;;;;;;5003257;28;20125;-59
2023/03/16 01:53:05;;;;;;;9.57;4.13;;;8.00;99.90;;;;;;5012648;28;20648;-56
2023/03/16 01:55:32;;;;;;;5.57;2.00;;;7.90;99.90;;;;;;5002127;28;20732;-57
2023/03/16 01:57:58;;;;;;;6.97;1.63;;;8.00;99.90;;;;;;5028719;28;20049;-58
2023/03/16 02:00:30;;;;;;;3.80;1.77;;;8.00;99.90;;;;;;5004028;28;20686;-58
2023/03/16 02:03:09;;;;;;;4.75;1.75;;;8.00;99.90;;;;;;5023053;28;20527;-58
2023/03/16 02:05:44;;;;;;;2.88;1.60;;;8.00;99.90;;;;;;4640772;28;10000010;-58
2023/03/16 02:08:11;;;;;;;5.82;2.78;;;8.00;99.90;;;;;;5002654;28;20111;-57
2023/03/16 02:10:38;;;;;;;6.45;2.22;;;8.00;99.90;;;;;;5022769;28;20046;-58
2023/03/16 02:13:05;;;;;;;3.03;1.65;;;8.10;99.90;;;;;;5001413;28;21080;-58
2023/03/16 02:15:34;;;;;;;6.50;3.20;;;8.10;99.90;;;;;;5018180;28;20089;-59
2023/03/16 02:18:01;;;;;;;5.53;1.95;;;8.10;99.90;;;;;;5018683;28;20132;-59
2023/03/16 02:20:42;;;;;;;6.10;1.98;;;8.10;99.90;;;;;;4994598;28;20619;-60
2023/03/16 02:23:17;;;;;;;6.03;2.40;;;8.20;99.90;;;;;;5001475;28;20163;-58
2023/03/16 02:26:00;;;;;;;4.40;2.17;;;8.20;99.90;;;;;;4988739;28;20057;-58
2023/03/16 02:28:33;;;;;;;5.50;2.25;;;8.20;99.90;;;;;;5003704;28;20124;-57
2023/03/16 02:31:00;;;;;;;12.40;2.55;;;8.30;99.90;;;;;;4990961;28;20046;-59
2023/03/16 02:33:27;;;;;;;5.38;2.40;;;8.20;99.90;;;;;;5000703;28;20103;-58
2023/03/16 02:35:54;;;;;;;7.55;2.45;;;8.30;99.90;;;;;;5007158;28;20045;-59
2023/03/16 02:38:21;;;;;;;9.77;2.92;;;8.20;99.90;;;;;;5018190;28;20053;-58
2023/03/16 02:40:57;;;;;;;10.88;2.67;;;8.30;99.90;;;;;;5021851;28;20497;-57
2023/03/16 02:43:32;;;;;;;5.80;2.60;;;8.30;99.90;;;;;;5002323;28;20056;-59
2023/03/16 02:45:59;;;;;;;11.50;3.22;;;8.40;99.90;;;;;;5012045;28;20053;-55
2023/03/16 02:48:56;;;;;;;10.20;3.20;;;8.40;99.90;;;;;;5003396;28;20125;-60
2023/03/16 02:51:23;;;;;;;15.52;4.63;;;8.40;99.90;;;;;;4982149;28;20289;-56
2023/03/16 02:53:49;;;;;;;12.88;3.20;;;8.50;99.90;;;;;;4985929;28;20060;-56
2023/03/16 02:56:16;;;;;;;15.65;2.70;;;8.50;99.90;;;;;;4995099;28;20042;-58
2023/03/16 02:58:43;;;;;;;7.78;2.78;;;8.50;99.90;;;;;;5021444;28;20041;-55
2023/03/16 03:01:10;;;;;;;10.80;2.97;;;8.60;99.90;;;;;;5010910;28;20388;-59
2023/03/16 03:03:37;;;;;;;14.27;2.75;;;8.60;99.90;;;;;;5020541;28;20520;-59
2023/03/16 03:06:04;;;;;;;14.80;4.30;;;8.60;99.90;;;;;;5010754;28;20057;-58
2023/03/16 03:08:31;;;;;;;10.85;3.15;;;8.60;99.90;;;;;;5020416;28;20045;-58
2023/03/16 03:10:58;;;;;;;12.65;3.10;;;8.70;99.90;;;;;;5010515;28;20049;-57
2023/03/16 03:13:25;;;;;;;10.43;3.15;;;8.60;99.90;;;;;;5019079;28;20076;-60
2023/03/16 03:15:52;;;;;;;10.63;2.72;;;8.60;99.90;;;;;;5010970;28;20089;-58
2023/03/16 03:18:18;;;;;;;11.43;3.00;;;8.70;99.90;;;;;;5017159;28;20100;-57
2023/03/16 03:20:45;;;;;;;9.43;2.90;;;8.70;99.90;;;;;;5023511;28;20530;-58
2023/03/16 03:23:14;;;;;;;12.18;2.90;;;8.70;99.90;;;;;;5019473;28;20079;-58
2023/03/16 03:25:41;;;;;;;11.10;3.17;;;8.80;99.90;;;;;;5021807;28;20057;-55
2023/03/16 03:28:08;;;;;;;10.32;3.05;;;8.80;99.90;;;;;;5018290;28;20081;-56
2023/03/16 03:30:34;;;;;;;9.90;2.88;;;8.80;99.90;;;;;;5018903;28;20499;-59
2023/03/16 03:33:01;;;;;;;26.52;5.03;;;8.80;99.90;;;;;;5005737;28;20099;-58
2023/03/16 03:35:28;;;;;;;4.97;3.20;;;8.90;99.90;;;;;;5016821;28;20049;-57
2023/03/16 03:37:55;;;;;;;11.50;2.42;;;8.90;99.90;;;;;;5005846;28;20388;-57
2023/03/16 03:40:21;;;;;;;12.30;3.03;;;9.00;99.90;;;;;;4999620;28;20585;-58
2023/03/16 03:42:48;;;;;;;7.00;2.72;;;9.00;99.90;;;;;;5024792;28;20045;-58
2023/03/16 03:45:15;;;;;;;13.63;3.10;;;9.00;99.90;;;;;;5014736;28;20120;-62
2023/03/16 03:47:42;;;;;;;4.47;2.00;;;9.10;99.90;;;;;;5024766;28;20108;-58
2023/03/16 03:50:10;;;;;;;12.70;2.65;;;9.00;99.90;;;;;;5015267;28;20505;-59
2023/03/16 03:52:37;;;;;;;13.48;3.38;;;9.10;99.90;;;;;;5025731;28;20045;-58
2023/03/16 03:55:04;;;;;;;19.13;2.72;;;9.10;99.90;;;;;;4997430;28;20453;-59
2023/03/16 03:57:31;;;;;;;11.52;2.72;;;9.10;99.90;;;;;;5015267;28;20056;-58
2023/03/16 03:59:58;;;;;;;12.57;2.30;;;9.20;99.90;;;;;;5018765;28;20515;-57
2023/03/16 04:02:25;;;;;;;10.00;2.03;;;9.20;99.90;;;;;;4993161;28;20104;-57
2023/03/16 04:04:52;;;;;;;9.32;2.08;;;9.20;99.90;;;;;;5019170;28;20045;-58
2023/03/16 04:07:19;;;;;;;10.27;2.85;;;9.20;99.90;;;;;;5027705;28;20045;-59
2023/03/16 04:09:45;;;;;;;7.47;2.45;;;9.20;99.90;;;;;;5016943;28;20492;-61
2023/03/16 04:12:12;;;;;;;14.90;3.67;;;9.20;99.90;;;;;;5015191;28;20137;-58
2023/03/16 04:14:39;;;;;;;18.45;2.28;;;9.20;99.90;;;;;;4994879;28;20140;-59
2023/03/16 04:17:06;;;;;;;9.57;2.30;;;9.30;99.90;;;;;;5017315;28;20497;-58
2023/03/16 04:19:33;;;;;;;8.88;2.03;;;9.30;99.90;;;;;;5011574;28;20052;-57
2023/03/16 04:22:00;;;;;;;11.88;3.83;;;9.30;99.90;;;;;;5018973;28;20096;-58
2023/03/16 04:24:26;;;;;;;5.45;1.70;;;9.30;99.90;;;;;;5011076;28;20057;-56
2023/03/16 04:26:53;;;;;;;6.55;2.53;;;9.30;99.90;;;;;;5019364;28;20042;-57
2023/03/16 04:29:20;;;;;;;16.55;2.75;;;9.30;99.90;;;;;;5024198;28;20377;-58
2023/03/16 04:31:47;;;;;;;7.22;2.03;;;9.30;99.90;;;;;;5015050;28;20045;-58
2023/03/16 04:34:13;;;;;;;10.38;2.47;;;9.30;99.90;;;;;;5023867;28;20041;-57
2023/03/16 04:36:40;;;;;;;7.05;1.90;;;9.40;99.90;;;;;;5014645;28;20293;-57
2023/03/16 04:39:08;;;;;;;12.35;1.95;;;9.40;99.90;;;;;;5025121;28;20061;-57
2023/03/16 04:41:35;;;;;;;8.30;1.92;;;9.40;99.90;;;;;;5015104;28;20473;-57
2023/03/16 04:44:03;;;;;;;17.30;2.13;;;9.40;99.90;;;;;;5027575;28;20072;-58
2023/03/16 04:46:30;;;;;;;6.78;1.73;;;9.40;99.90;;;;;;5019723;28;20053;-58
2023/03/16 04:48:57;;;;;;;10.00;2.20;;;9.40;99.90;;;;;;5028429;28;20050;-59
2023/03/16 04:51:25;;;;;;;7.43;2.00;;;9.50;99.90;;;;;;5020797;28;20049;-58
2023/03/16 04:53:52;;;;;;;13.77;3.92;;;9.50;99.90;;;;;;5009455;28;20120;-58
2023/03/16 04:56:19;;;;;;;9.77;1.95;;;9.50;99.90;;;;;;5022966;28;20374;-58
2023/03/16 04:58:46;;;;;;;6.68;1.95;;;9.50;99.90;;;;;;5024192;28;20053;-58
2023/03/16 05:01:13;;;;;;;12.38;2.20;;;9.50;99.90;;;;;;5020425;28;20428;-57
2023/03/16 05:03:40;;;;;;;5.70;2.00;;;9.50;99.90;;;;;;5020027;28;20061;-57
2023/03/16 05:06:07;;;;;;;5.90;2.05;;;9.50;99.90;;;;;;5014587;28;20042;-57
2023/03/16 05:08:34;;;;;;;11.27;3.13;;;9.50;99.90;;;;;;5022137;28;20058;-56
2023/03/16 05:11:01;;;;;;;10.60;2.10;;;9.50;99.90;;;;;;5014529;28;20122;-56
2023/03/16 05:13:27;;;;;;;3.67;1.85;;;9.50;99.90;;;;;;5027524;28;20269;-57
2023/03/16 05:15:54;;;;;;;6.88;1.80;;;9.60;99.90;;;;;;5009279;28;20057;-59
2023/03/16 05:18:21;;;;;;;8.43;2.40;;;9.50;99.90;;;;;;5018334;28;20415;-58
2023/03/16 05:20:52;;;;;;;8.38;3.80;;;9.50;99.90;;;;;;5027467;28;20180;-57
2023/03/16 05:23:19;;;;;;;9.02;1.98;;;9.40;99.90;;;;;;5017915;28;20104;-58
2023/03/16 05:25:46;;;;;;;7.38;1.58;;;9.40;99.90;;;;;;5027640;28;20080;-58
2023/03/16 05:28:13;;;;;;;3.22;1.05;;;9.40;99.90;;;;;;5005272;28;20492;-59
2023/03/16 05:30:41;;;;;;;4.03;1.23;;;9.30;99.90;;;;;;5026734;28;20049;-58
2023/03/16 05:33:08;;;;;;;6.13;1.33;;;9.30;99.90;;;;;;5018365;28;20056;-58
2023/03/16 05:35:35;;;;;;;4.80;1.70;;;9.30;99.90;;;;;;5027629;28;20037;-58
2023/03/16 05:38:02;;;;;;;7.28;2.00;;;9.30;99.90;;;;;;5019995;28;20160;-58
2023/03/16 05:40:29;;;;;;;5.70;1.50;;;9.30;99.90;;;;;;5026047;28;20416;-57
2023/03/16 05:42:56;;;;;;;5.45;1.45;;;9.30;99.90;;;;;;5003846;28;20070;-59
2023/03/16 05:45:23;;;;;;;6.10;1.40;;;9.40;99.90;;;;;;5023114;28;20053;-59
2023/03/16 05:47:50;;;;;;;5.00;1.92;;;9.40;99.90;;;;;;5023558;28;20352;-57
2023/03/16 05:50:17;;;;;;;8.15;2.40;;;9.40;99.90;;;;;;5021446;28;20045;-57
2023/03/16 05:52:44;;;;;;;12.60;2.60;;;9.40;99.90;;;;;;5025435;28;20048;-58
2023/03/16 05:55:13;;;;;;;4.30;2.08;;;9.40;99.90;;;;;;5017836;28;20144;-60
2023/03/16 05:57:40;;;;;;;9.32;2.17;;;9.40;99.90;;;;;;5025059;28;20438;-59
2023/03/16 06:00:14;;;;;;;10.43;1.85;;;9.50;99.90;;;;;;5018259;28;20045;-58
2023/03/16 06:02:48;;;;;;;12.55;2.13;;;9.50;99.90;;;;;;5024992;28;20057;-57
2023/03/16 06:05:16;;;;;;;10.73;2.60;;;9.50;99.90;;;;;;5018210;28;20049;-58
2023/03/16 06:07:43;;;;;;;11.80;2.38;;;9.50;99.90;;;;;;5025755;28;20136;-59
2023/03/16 06:10:10;;;;;;;10.20;2.85;;;9.50;99.90;;;;;;5017676;28;20088;-60
2023/03/16 06:12:37;;;;;;;10.68;2.55;;;9.50;99.90;;;;;;5026626;28;20132;-55
2023/03/16 06:15:07;;;;;;;11.20;2.33;;;9.50;99.90;;;;;;5016353;28;20090;-56
2023/03/16 06:17:34;;;;;;;15.68;2.50;;;9.50;99.90;;;;;;5026028;28;20041;-59
2023/03/16 06:20:01;;;;;;;8.43;1.38;;;9.50;99.90;;;;;;5017420;28;20437;-59
2023/03/16 06:22:32;;;;;;;7.53;1.90;;;9.50;99.90;;;;;;5029569;28;20453;-59
2023/03/16 06:24:58;;;;;;;14.15;4.03;;;9.60;99.90;;;;;;5017130;28;20053;-57
2023/03/16 06:27:25;;;;;;;7.07;1.77;;;9.50;99.90;;;;;;5026725;28;20049;-57
2023/03/16 06:29:52;;;;;;;11.88;2.20;;;9.50;99.90;;;;;;5019134;28;20045;-58
2023/03/16 06:32:19;;;;;;;15.15;3.92;;;9.50;99.90;;;;;;5012860;28;20041;-57
2023/03/16 06:34:45;;;;;;;9.88;2.10;;;9.50;99.90;;;;;;5012796;28;20136;-59
2023/03/16 06:37:12;;;;;;;9.20;2.50;;;9.50;99.90;;;;;;5023697;28;20128;-60
2023/03/16 06:39:39;;;;;;;20.83;4.50;;;9.60;99.90;;;;;;5021470;28;20058;-56
2023/03/16 06:42:06;;;;;;;9.23;2.00;;;9.50;99.90;;;;;;5015223;28;20431;-58
2023/03/16 06:44:33;;;;;;;17.02;4.47;;;9.50;99.90;;;;;;5017173;28;20129;-59
2023/03/16 06:46:59;;;;;;;6.90;1.40;;;9.50;99.90;;;;;;5029218;28;20096;-59
2023/03/16 06:49:26;;;;;;;5.80;1.27;;;9.60;99.90;;;;;;5024568;28;20060;-58
2023/03/16 06:51:53;;;;;;;7.22;2.10;;;9.60;99.90;;;;;;5017797;28;20089;-59
2023/03/16 06:54:20;;;;;;;9.40;1.23;;;9.60;99.90;;;;;;5024449;28;20045;-58
2023/03/16 06:56:47;;;;;;;8.15;1.40;;;9.60;99.90;;;;;;5019880;28;20056;-59
2023/03/16 06:59:14;;;;;;;13.30;3.38;;;9.60;99.90;;;;;;5011097;28;20069;-57
2023/03/16 07:01:41;;;;;;;7.85;1.83;;;9.70;99.90;;;;;;5018159;28;20215;-58
2023/03/16 07:04:07;;;;;;;13.43;2.28;;;9.60;99.90;;;;;;5025695;28;20042;-60
2023/03/16 07:06:34;;;;;;;12.20;1.85;;;9.60;99.90;;;;;;5015379;28;20049;-56
2023/03/16 07:09:03;;;;;;;10.13;1.40;;;9.60;99.90;;;;;;5027120;28;20042;-58
2023/03/16 07:11:31;;;;;;;9.98;1.35;;;9.70;99.90;;;;;;5016275;28;20081;-61
2023/03/16 07:13:58;;;;;;;11.20;1.55;;;9.70;99.90;;;;;;5025615;28;20046;-56
2023/03/16 07:16:25;;;;;;;6.35;1.70;;;9.70;99.90;;;;;;5019436;28;20057;-56
2023/03/16 07:18:52;;;;;;;6.60;1.38;;;9.70;99.90;;;;;;5011969;28;20446;-57
2023/03/16 07:21:18;;;;;;;5.25;1.98;;;9.70;99.90;;;;;;5017481;28;20092;-56
2023/03/16 07:23:45;;;;;;;7.75;1.38;;;9.80;99.90;;;;;;4996672;28;20122;-58
2023/03/16 07:26:12;;;;;;;5.25;3.10;;;9.80;99.90;;;;;;5014844;28;20055;-56
2023/03/16 07:28:39;;;;;;;6.88;1.25;;;9.80;99.90;;;;;;5016303;28;20049;-58
2023/03/16 07:31:13;;;;;;;15.67;2.43;;;9.80;99.90;;;;;;4852466;28;10000979;-57
2023/03/16 07:33:40;;;;;;;3.42;1.38;;;9.80;99.90;;;;;;5024456;28;20310;-58
2023/03/16 07:36:09;;;;;;;3.08;1.15;;;9.80;99.90;;;;;;5002541;28;20539;-56
2023/03/16 07:38:36;;;;;;;5.50;1.35;;;9.80;99.90;;;;;;5013538;28;20416;-56
2023/03/16 07:41:03;;;;;;;2.65;1.17;;;9.80;99.90;;;;;;5002184;28;20129;-57
2023/03/16 07:43:29;;;;;;;3.03;1.70;;;9.80;99.90;;;;;;5012804;28;20055;-58
2023/03/16 07:45:56;;;;;;;2.70;0.90;;;9.80;99.90;;;;;;5021115;28;20053;-56
2023/03/16 07:48:23;;;;;;;3.97;1.00;;;9.90;99.90;;;;;;5011957;28;20122;-58
2023/03/16 07:50:50;;;;;;;3.90;0.98;;;9.90;99.90;;;;;;5021915;28;20160;-59
2023/03/16 07:53:17;;;;;;;3.35;1.38;;;9.90;99.90;;;;;;4994247;28;20120;-58
2023/03/16 07:55:44;;;;;;;4.15;1.00;;;9.90;99.90;;;;;;4987460;28;20137;-57
2023/03/16 07:58:10;;;;;;;2.30;1.00;;;10.00;99.90;;;;;;5016688;28;20096;-60
2023/03/16 08:00:38;;;;;;;1.98;0.95;;;9.90;99.90;;;;;;5005897;28;20053;-59
2023/03/16 08:03:04;;;;;;;2.17;0.70;;;10.00;99.90;;;;;;5012796;28;20046;-57
2023/03/16 08:05:31;;;;;;;5.00;0.80;;;10.00;99.90;;;;;;5015297;28;20057;-57
2023/03/16 08:07:58;;;;;;;5.28;0.80;;;10.00;99.90;;;;;;5013315;28;20049;-59
2023/03/16 08:10:25;;;;;;;3.92;1.00;;;10.00;99.90;;;;;;5014318;28;20057;-58
2023/03/16 08:12:53;;;;;;;9.32;1.10;;;10.00;99.90;;;;;;5010751;28;20526;-57
2023/03/16 08:15:20;;;;;;;2.03;1.10;;;10.00;99.90;;;;;;4997030;28;20115;-59
2023/03/16 08:17:47;;;;;;;5.50;1.77;;;10.00;99.90;;;;;;5012475;28;20091;-60
2023/03/16 08:20:14;;;;;;;4.72;1.15;;;10.00;99.90;;;;;;5009051;28;20065;-58
2023/03/16 08:22:45;;;;;;;6.10;1.25;;;10.10;99.90;;;;;;5013262;28;20045;-57
2023/03/16 08:25:12;;;;;;;8.43;1.23;;;10.00;99.90;;;;;;5010115;28;20058;-61
2023/03/16 08:27:41;;;;;;;6.55;1.02;;;10.00;99.90;;;;;;5008283;28;20132;-59
2023/03/16 08:30:10;;;;;;;3.28;1.48;;;10.00;99.90;;;;;;4997016;28;20053;-62
2023/03/16 08:32:40;;;;;;;3.28;0.90;;;10.00;99.90;;;;;;5006552;28;20108;-59
2023/03/16 08:35:09;;;;;;;3.75;1.13;;;10.10;99.90;;;;;;4994315;28;20088;-59
2023/03/16 08:37:37;;;;;;;3.25;1.08;;;10.10;99.90;;;;;;5021321;28;20056;-60
2023/03/16 08:40:15;;;;;;;5.47;1.25;;;10.10;99.90;;;;;;5015313;28;20067;-61
2023/03/16 08:42:43;;;;;;;4.18;1.15;;;10.10;99.90;;;;;;5017772;28;20063;-59
2023/03/16 08:45:11;;;;;;;3.42;1.20;;;10.10;99.90;;;;;;5010359;28;20446;-59
2023/03/16 08:47:40;;;;;;;6.55;1.48;;;10.10;99.90;;;;;;5009555;28;20049;-59
2023/03/16 08:50:08;;;;;;;3.90;0.85;;;10.10;99.90;;;;;;4998215;28;20650;-59
2023/03/16 08:52:37;;;;;;;4.80;1.48;;;10.20;99.90;;;;;;5005862;28;20045;-58
2023/03/16 08:55:06;;;;;;;3.35;0.90;;;10.20;99.90;;;;;;4993421;28;20050;-59
2023/03/16 08:57:33;;;;;;;8.50;2.08;;;10.20;99.90;;;;;;5004293;28;20115;-59
2023/03/16 09:00:00;;;;;;;12.77;1.70;;;10.30;99.90;;;;;;4996366;28;20080;-58
2023/03/16 09:02:27;;;;;;;6.35;1.77;;;10.30;99.90;;;;;;5005286;28;20056;-59
2023/03/16 09:04:55;;;;;;;3.47;0.88;;;10.30;99.90;;;;;;4994967;28;20136;-59
2023/03/16 09:07:22;;;;;;;8.35;1.70;;;10.40;99.90;;;;;;5007676;28;20176;-60
2023/03/16 09:09:49;;;;;;;5.18;1.48;;;10.40;99.90;;;;;;5014138;28;20096;-59
2023/03/16 09:12:16;;;;;;;7.22;2.22;;;10.40;99.90;;;;;;5012508;28;20060;-59
2023/03/16 09:14:44;;;;;;;4.35;1.05;;;10.40;99.90;;;;;;5007004;28;20081;-59
2023/03/16 09:17:11;;;;;;;6.65;1.58;;;10.50;99.90;;;;;;5015435;28;20057;-59
2023/03/16 09:19:39;;;;;;;7.78;1.30;;;10.50;99.90;;;;;;4997271;28;20080;-59
2023/03/16 09:22:18;;;;;;;8.73;1.30;;;10.50;99.90;;;;;;5011457;28;20571;-59
2023/03/16 09:24:47;;;;;;;6.82;1.35;;;10.60;99.90;;;;;;5014112;28;20368;-59
2023/03/16 09:27:14;;;;;;;11.57;1.63;;;10.60;99.90;;;;;;5018417;28;20602;-58
2023/03/16 09:29:41;;;;;;;6.40;1.33;;;10.60;99.90;;;;;;5003196;28;20045;-59
2023/03/16 09:32:08;;;;;;;11.20;2.67;;;10.70;99.90;;;;;;4997201;28;20061;-59
2023/03/16 09:34:35;;;;;;;14.13;2.03;;;10.70;99.90;;;;;;5015584;28;20496;-59
2023/03/16 09:37:02;;;;;;;9.93;2.08;;;10.80;99.90;;;;;;5016744;28;20041;-56
2023/03/16 09:39:30;;;;;;;6.35;1.40;;;10.90;99.90;;;;;;5015442;28;20049;-58
2023/03/16 09:42:13;;;;;;;9.35;1.92;;;11.00;99.90;;;;;;5020488;28;20110;-58
2023/03/16 09:45:11;;;;;;;4.77;1.20;;;11.10;99.90;;;;;;5009957;28;20095;-57
2023/03/16 09:47:37;;;;;;;7.72;1.65;;;11.10;99.90;;;;;;5003273;28;20708;-64
2023/03/16 09:50:07;;;;;;;12.23;1.83;;;11.10;99.90;;;;;;5002774;28;20046;-59
2023/03/16 09:52:47;;;;;;;9.02;1.40;;;11.10;99.90;;;;;;4998016;28;20103;-58
2023/03/16 09:55:35;;;;;;;11.75;1.83;;;11.10;99.90;;;;;;5006884;28;20158;-58
2023/03/16 09:58:04;;;;;;;19.42;2.42;;;11.10;99.90;;;;;;5015432;28;20060;-58
2023/03/16 10:00:36;;;;;;;14.20;2.78;;;11.30;99.90;;;;;;5022001;28;20045;-59
2023/03/16 10:03:28;;;;;;;12.00;1.48;;;11.30;99.90;;;;;;5000371;28;20050;-57
2023/03/16 10:06:00;;;;;;;9.82;1.67;;;11.30;99.90;;;;;;5010455;28;20224;-58
2023/03/16 10:08:39;;;;;;;7.78;1.83;;;11.50;99.90;;;;;;4999775;28;20539;-59
2023/03/16 10:11:28;;;;;;;5.50;1.40;;;11.60;99.90;;;;;;5008276;28;20151;-58
2023/03/16 10:14:16;;;;;;;6.95;1.75;;;11.70;99.90;;;;;;5014733;28;20406;-57
2023/03/16 10:16:46;;;;;;;10.18;1.83;;;11.90;99.90;;;;;;5000678;28;20517;-58
2023/03/16 10:19:18;;;;;;;11.07;1.73;;;12.00;99.90;;;;;;4997936;28;20977;-58
2023/03/16 10:21:45;;;;;;;9.18;1.77;;;12.00;99.90;;;;;;5019516;28;20077;-59
2023/03/16 10:24:42;;;;;;;7.85;1.88;;;12.10;99.90;;;;;;4996844;28;20295;-58
2023/03/16 10:27:21;;;;;;;5.30;2.00;;;12.10;99.90;;;;;;4980273;28;20136;-59
2023/03/16 10:29:48;;;;;;;10.60;1.90;;;12.20;99.90;;;;;;5013546;28;20045;-58
2023/03/16 10:32:17;;;;;;;15.30;3.30;;;12.40;99.90;;;;;;5014394;28;20126;-58
2023/03/16 10:34:57;;;;;;;7.68;2.00;;;12.40;99.90;;;;;;4999686;28;20053;-57
2023/03/16 10:37:25;;;;;;;12.38;2.05;;;12.50;99.90;;;;;;4985036;28;20050;-59
2023/03/16 10:39:52;;;;;;;11.10;2.25;;;12.60;99.90;;;;;;4982019;28;20049;-58
2023/03/16 10:42:20;;;;;;;9.73;1.63;;;12.70;99.90;;;;;;5010838;28;20042;-59
2023/03/16 10:44:46;;;;;;;20.02;2.40;;;12.70;99.90;;;;;;5013900;28;20552;-58
2023/03/16 10:47:32;;;;;;;6.50;1.40;;;12.90;99.90;;;;;;5021267;28;20045;-60
2023/03/16 10:50:11;;;;;;;12.95;2.72;;;13.00;99.90;;;;;;5017123;28;20148;-58
2023/03/16 10:52:48;;;;;;;8.77;2.03;;;13.10;99.90;;;;;;4991591;28;20064;-59
2023/03/16 10:55:20;;;;;;;11.10;1.45;;;13.30;99.90;;;;;;4998627;28;20077;-59
2023/03/16 10:57:52;;;;;;;7.10;1.40;;;13.40;99.90;;;;;;4991868;28;20102;-60
2023/03/16 11:00:23;;;;;;;11.40;1.67;;;13.40;99.90;;;;;;5016647;28;20100;-59
2023/03/16 11:02:52;;;;;;;10.02;1.70;;;13.40;99.90;;;;;;5007439;28;20089;-58
2023/03/16 11:05:34;;;;;;;8.02;1.23;;;13.40;99.90;;;;;;4993949;28;20502;-60
2023/03/16 11:08:08;;;;;;;8.07;2.08;;;13.50;99.90;;;;;;5012177;28;20074;-58
2023/03/16 11:10:39;;;;;;;;;;;13.70;99.90;;;;;;5013772;28;20443;-59
2023/03/16 11:13:21;;;;;;;9.95;2.72;;;13.70;99.90;;;;;;5018411;28;19940;-60
2023/03/16 11:15:57;;;;;;;12.70;1.95;;;13.70;99.90;;;;;;5014806;28;20392;-59
2023/03/16 11:18:32;;;;;;;14.13;1.95;;;13.70;99.90;;;;;;5015466;28;20136;-59
2023/03/16 11:21:21;;;;;;;8.40;2.05;;;13.60;99.90;;;;;;4999214;28;20049;-59
2023/03/16 11:23:51;;;;;;;4.78;1.45;;;13.60;99.90;;;;;;4993691;28;20128;-59
2023/03/16 11:26:41;;;;;;;11.45;1.83;;;13.70;99.90;;;;;;4998570;28;20132;-59
2023/03/16 11:29:19;;;;;;;10.73;1.45;;;13.70;99.90;;;;;;5000050;28;20042;-60
2023/03/16 11:32:06;;;;;;;11.18;1.95;;;13.80;99.90;;;;;;5012892;28;20056;-61
2023/03/16 11:34:33;;;;;;;7.65;1.15;;;13.80;99.90;;;;;;5001771;28;20050;-60
2023/03/16 11:37:20;;;;;;;9.70;1.63;;;13.80;99.90;;;;;;4996647;28;20286;-59
2023/03/16 11:39:53;;;;;;;12.43;1.85;;;13.80;99.90;;;;;;4996304;28;20049;-58
2023/03/16 11:42:41;;;;;;;5.70;1.15;;;13.60;99.90;;;;;;5007292;28;20149;-58
2023/03/16 11:45:31;;;;;;;14.38;1.48;;;13.60;99.90;;;;;;5010088;28;20054;-59
2023/03/16 11:48:35;;;;;;;4.45;1.45;;;13.50;99.90;;;;;;5001222;28;20060;-56
2023/03/16 11:51:23;;;;;;;7.03;1.70;;;13.40;99.90;;;;;;4997632;28;20049;-60
2023/03/16 11:54:00;;;;;;;9.70;1.60;;;13.40;99.90;;;;;;5015984;28;20374;-58
2023/03/16 11:56:29;;;;;;;10.63;1.38;;;13.60;99.90;;;;;;4998056;28;20103;-59
2023/03/16 11:58:59;;;;;;;8.48;1.75;;;13.60;99.90;;;;;;5012042;28;20394;-61
2023/03/16 12:01:58;;;;;;;10.95;1.02;;;13.50;99.90;;;;;;5015940;28;20090;-60
2023/03/16 12:04:47;;;;;;;13.13;2.95;;;13.50;99.90;;;;;;5012149;28;20239;-58
2023/03/16 12:07:26;;;;;;;9.55;2.20;;;13.40;99.90;;;;;;4996035;28;20085;-59
2023/03/16 12:09:56;;;;;;;8.63;1.73;;;13.30;99.90;;;;;;5007251;28;20053;-59
2023/03/16 12:12:36;;;;;;;4.30;1.35;;;13.30;99.90;;;;;;5015115;28;20408;-61
2023/03/16 12:15:13;;;;;;;8.75;1.60;;;13.20;99.90;;;;;;5001984;28;20389;-59
2023/03/16 12:17:40;;;;;;;16.27;2.55;;;13.20;99.90;;;;;;5019012;28;20059;-59
2023/03/16 12:20:22;;;;;;;16.00;1.90;;;13.20;99.90;;;;;;5019492;28;20136;-58
2023/03/16 12:22:58;;;;;;;11.75;1.92;;;13.30;99.90;;;;;;4992438;28;20484;-59
2023/03/16 12:25:28;;;;;;;14.70;1.75;;;13.30;99.90;;;;;;4989565;28;20458;-59
2023/03/16 12:27:57;;;;;;;8.77;1.40;;;13.30;99.90;;;;;;4999795;28;20251;-60
2023/03/16 12:30:42;;;;;;;18.15;1.75;;;13.40;99.90;;;;;;5012633;28;20049;-58
2023/03/16 12:33:13;;;;;;;13.90;3.17;;;13.40;99.90;;;;;;4998666;28;20055;-59
2023/03/16 12:35:43;;;;;;;11.15;2.33;;;13.40;99.90;;;;;;5012170;28;20050;-59
2023/03/16 12:38:33;;;;;;;7.32;1.40;;;13.40;99.90;;;;;;5014331;28;20107;-57
2023/03/16 12:41:00;;;;;;;9.45;1.80;;;13.30;99.90;;;;;;5011488;28;20151;-59
2023/03/16 12:43:48;;;;;;;10.35;1.90;;;13.20;99.90;;;;;;5013822;28;20141;-60
2023/03/16 12:46:23;;;;;;;12.85;1.90;;;13.30;99.90;;;;;;5000122;28;20053;-59
2023/03/16 12:48:53;;;;;;;7.93;1.80;;;13.40;99.90;;;;;;4994112;28;20076;-58
2023/03/16 12:51:36;;;;;;;7.38;1.90;;;13.40;99.90;;;;;;5015620;28;20463;-58
2023/03/16 12:54:03;;;;;;;8.23;1.50;;;13.50;99.90;;;;;;5014307;28;20057;-59
2023/03/16 12:56:35;;;;;;;13.27;2.25;;;13.60;99.90;;;;;;5001072;28;20073;-60
2023/03/16 12:59:04;;;;;;;7.22;2.13;;;13.80;99.90;;;;;;4995579;28;20063;-59
2023/03/16 13:01:43;;;;;;;3.97;1.15;;;13.80;99.90;;;;;;4993190;28;20093;-59
2023/03/16 13:04:18;;;;;;;6.47;2.13;;;13.80;99.90;;;;;;4998848;28;20054;-60
2023/03/16 13:06:49;;;;;;;5.97;1.73;;;13.70;99.90;;;;;;4994421;28;20057;-60